createdAt,value
2023-05-24T00:00:54.802Z,37.86
2023-05-24T00:01:54.682Z,37.84
2023-05-24T00:02:54.799Z,37.85
2023-05-24T00:03:55.060Z,37.82
2023-05-24T00:04:54.871Z,37.86
2023-05-24T00:05:54.904Z,37.83
2023-05-24T00:06:55.194Z,37.88
2023-05-24T00:07:55.026Z,37.87
2023-05-24T00:08:55.063Z,37.88
2023-05-24T00:09:55.131Z,37.83
2023-05-24T00:10:55.174Z,37.80
2023-05-24T00:11:55.255Z,37.80
2023-05-24T00:12:55.309Z,37.84
2023-05-24T00:13:55.354Z,37.80
2023-05-24T00:14:55.428Z,37.83
2023-05-24T00:15:55.493Z,37.82
2023-05-24T00:16:55.654Z,37.78
2023-05-24T00:17:55.604Z,37.81
2023-05-24T00:18:55.642Z,37.79
2023-05-24T00:19:55.713Z,37.82
2023-05-24T00:20:55.749Z,37.79
2023-05-24T00:21:55.784Z,37.78
2023-05-24T00:22:55.852Z,37.80
2023-05-24T00:23:55.900Z,37.80
2023-05-24T00:24:55.953Z,37.80
2023-05-24T00:25:55.989Z,37.82
2023-05-24T00:26:56.042Z,37.83
2023-05-24T00:27:56.094Z,37.84
2023-05-24T00:28:56.166Z,37.83
2023-05-24T00:29:56.225Z,37.88
2023-05-24T00:30:56.292Z,37.84
2023-05-24T00:31:56.364Z,37.86
2023-05-24T00:34:15.558Z,37.92
2023-05-24T00:35:15.590Z,37.93
2023-05-24T00:36:15.753Z,37.86
2023-05-24T00:37:15.562Z,37.86
2023-05-24T00:38:15.560Z,37.89
2023-05-24T00:39:15.538Z,37.88
2023-05-24T00:40:15.535Z,37.91
2023-05-24T00:41:15.759Z,37.89
2023-05-24T00:42:15.508Z,37.85
2023-05-24T00:43:15.522Z,37.89
2023-05-24T00:44:15.510Z,37.85
2023-05-24T00:45:15.505Z,37.85
2023-05-24T00:46:15.827Z,37.90
2023-05-24T00:47:15.474Z,37.87
2023-05-24T00:48:15.481Z,37.92
2023-05-24T00:49:15.484Z,37.93
2023-05-24T00:50:15.469Z,37.92
2023-05-24T00:51:15.763Z,37.89
2023-05-24T00:52:15.455Z,37.89
2023-05-24T00:53:15.442Z,37.89
2023-05-24T00:54:15.445Z,37.86
2023-05-24T00:55:15.416Z,37.89
2023-05-24T00:56:15.771Z,37.89
2023-05-24T00:57:15.421Z,37.89
2023-05-24T00:58:15.417Z,37.85
2023-05-24T00:59:15.396Z,37.88
2023-05-24T01:00:15.394Z,37.86
2023-05-24T01:01:15.760Z,37.84
2023-05-24T01:02:15.406Z,37.85
2023-05-24T01:03:15.447Z,37.84
2023-05-24T01:04:15.377Z,37.89
2023-05-24T01:05:15.370Z,37.89
2023-05-24T01:06:15.350Z,37.84
2023-05-24T01:07:15.344Z,37.88
2023-05-24T01:08:15.329Z,37.89
2023-05-24T01:09:15.400Z,37.92
2023-05-24T01:10:15.451Z,37.89
2023-05-24T01:11:15.528Z,37.90
2023-05-24T01:12:15.596Z,37.91
2023-05-24T01:13:15.637Z,37.88
2023-05-24T01:14:15.698Z,37.91
2023-05-24T01:15:15.763Z,37.89
2023-05-24T01:16:15.939Z,37.90
2023-05-24T01:17:15.891Z,37.89
2023-05-24T01:18:15.950Z,37.88
2023-05-24T01:19:16.020Z,37.90
2023-05-24T01:20:16.095Z,37.90
2023-05-24T01:21:16.126Z,37.94
2023-05-24T01:22:16.191Z,37.90
2023-05-24T01:23:16.261Z,37.92
2023-05-24T01:24:16.310Z,37.88
2023-05-24T01:25:16.391Z,37.89
2023-05-24T01:26:16.441Z,37.91
2023-05-24T01:27:16.517Z,37.91
2023-05-24T01:28:16.579Z,37.97
2023-05-24T01:29:16.628Z,37.95
2023-05-24T01:30:16.715Z,37.95
2023-05-24T01:31:16.784Z,37.98
2023-05-24T01:32:16.838Z,37.91
2023-05-24T01:33:16.869Z,37.93
2023-05-24T01:34:16.955Z,37.99
2023-05-24T01:35:17.021Z,37.90
2023-05-24T01:36:17.085Z,37.92
2023-05-24T01:37:17.131Z,37.92
2023-05-24T01:38:17.197Z,37.90
2023-05-24T01:39:17.254Z,37.97
2023-05-24T01:40:17.320Z,37.90
2023-05-24T01:41:17.382Z,37.94
2023-05-24T01:42:17.450Z,37.94
2023-05-24T01:43:17.518Z,37.93
2023-05-24T01:44:17.566Z,37.94
2023-05-24T01:45:17.654Z,37.95
2023-05-24T01:46:17.724Z,38.01
2023-05-24T01:47:17.755Z,37.99
2023-05-24T01:48:17.872Z,37.97
2023-05-24T01:49:17.885Z,37.95
2023-05-24T01:50:17.964Z,37.97
2023-05-24T01:51:18.039Z,38.01
2023-05-24T01:52:18.110Z,37.92
2023-05-24T01:53:18.155Z,37.97
2023-05-24T01:54:18.216Z,37.99
2023-05-24T01:55:18.274Z,38.03
2023-05-24T01:56:18.342Z,38.01
2023-05-24T01:57:18.396Z,38.00
2023-05-24T01:58:18.464Z,38.01
2023-05-24T01:59:18.510Z,37.95
2023-05-24T02:00:18.573Z,37.95
2023-05-24T02:01:18.674Z,37.96
2023-05-24T02:02:18.724Z,38.02
2023-05-24T02:03:18.810Z,38.01
2023-05-24T02:04:18.832Z,37.97
2023-05-24T02:05:18.893Z,37.99
2023-05-24T02:06:18.967Z,37.99
2023-05-24T02:07:19.012Z,37.96
2023-05-24T02:08:19.082Z,37.95
2023-05-24T02:09:19.139Z,37.96
2023-05-24T02:10:19.263Z,37.98
2023-05-24T02:11:19.286Z,37.99
2023-05-24T02:12:19.326Z,37.96
2023-05-24T02:13:19.402Z,37.94
2023-05-24T02:14:19.462Z,37.87
2023-05-24T02:15:19.525Z,37.90
2023-05-24T02:16:19.644Z,37.91
2023-05-24T02:17:19.682Z,37.95
2023-05-24T02:18:19.740Z,37.95
2023-05-24T02:19:19.806Z,37.92
2023-05-24T02:20:19.882Z,37.87
2023-05-24T02:21:19.952Z,37.85
2023-05-24T02:22:20.002Z,37.84
2023-05-24T02:23:20.069Z,37.79
2023-05-24T02:24:20.124Z,37.86
2023-05-24T02:25:20.229Z,37.78
2023-05-24T02:26:20.256Z,37.79
2023-05-24T02:27:20.336Z,37.79
2023-05-24T02:28:20.398Z,37.75
2023-05-24T02:29:20.473Z,37.75
2023-05-24T02:30:20.530Z,37.76
2023-05-24T02:31:20.597Z,37.69
2023-05-24T02:32:20.634Z,37.73
2023-05-24T02:33:20.729Z,37.71
2023-05-24T02:34:20.780Z,37.67
2023-05-24T02:35:20.853Z,37.66
2023-05-24T02:36:20.895Z,37.66
2023-05-24T02:37:20.970Z,37.59
2023-05-24T02:38:21.033Z,37.62
2023-05-24T02:39:21.094Z,37.59
2023-05-24T02:40:21.162Z,37.58
2023-05-24T02:41:21.235Z,37.57
2023-05-24T02:42:21.323Z,37.61
2023-05-24T02:43:21.378Z,37.58
2023-05-24T02:44:21.432Z,37.57
2023-05-24T02:45:21.502Z,37.55
2023-05-24T02:46:21.621Z,37.55
2023-05-24T02:47:21.648Z,37.53
2023-05-24T02:48:21.654Z,37.54
2023-05-24T02:49:21.720Z,37.48
2023-05-24T02:50:21.806Z,37.52
2023-05-24T02:51:21.855Z,37.50
2023-05-24T02:52:21.954Z,37.46
2023-05-24T02:53:21.988Z,37.49
2023-05-24T02:54:22.029Z,37.50
2023-05-24T02:55:22.088Z,37.46
2023-05-24T02:56:22.148Z,37.45
2023-05-24T02:57:22.171Z,37.40
2023-05-24T02:58:22.242Z,37.46
2023-05-24T02:59:22.293Z,37.38
2023-05-24T03:00:22.351Z,37.46
2023-05-24T03:01:22.461Z,37.45
2023-05-24T03:02:22.542Z,37.45
2023-05-24T03:03:22.792Z,37.39
2023-05-24T03:04:22.610Z,37.46
2023-05-24T03:05:22.648Z,37.42
2023-05-24T03:06:22.702Z,37.37
2023-05-24T03:07:22.730Z,37.42
2023-05-24T03:08:22.790Z,37.40
2023-05-24T03:09:22.844Z,37.41
2023-05-24T03:10:22.910Z,37.42
2023-05-24T03:11:22.957Z,37.42
2023-05-24T03:12:23.020Z,37.41
2023-05-24T03:13:23.093Z,37.36
2023-05-24T03:14:23.148Z,37.42
2023-05-24T03:15:23.200Z,37.42
2023-05-24T03:16:23.274Z,37.38
2023-05-24T03:17:23.283Z,37.38
2023-05-24T03:18:23.326Z,37.37
2023-05-24T03:19:23.385Z,37.39
2023-05-24T03:20:23.486Z,37.38
2023-05-24T03:21:23.599Z,37.41
2023-05-24T03:22:23.530Z,37.38
2023-05-24T03:23:23.582Z,37.41
2023-05-24T03:24:23.604Z,37.37
2023-05-24T03:25:23.639Z,37.42
2023-05-24T03:26:23.706Z,37.34
2023-05-24T03:27:23.723Z,37.36
2023-05-24T03:28:23.760Z,37.34
2023-05-24T03:29:23.801Z,37.37
2023-05-24T03:30:23.852Z,37.40
2023-05-24T03:31:23.915Z,37.38
2023-05-24T03:32:23.959Z,37.40
2023-05-24T03:33:23.972Z,37.38
2023-05-24T03:34:24.035Z,37.38
2023-05-24T03:35:24.074Z,37.41
2023-05-24T03:36:24.132Z,37.39
2023-05-24T03:37:24.194Z,37.41
2023-05-24T03:38:24.241Z,37.34
2023-05-24T03:39:24.302Z,37.39
2023-05-24T03:40:24.357Z,37.41
2023-05-24T03:41:24.382Z,37.37
2023-05-24T03:42:24.435Z,37.37
2023-05-24T03:43:24.502Z,37.37
2023-05-24T03:44:24.538Z,37.43
2023-05-24T03:45:37.629Z,37.39
2023-05-24T03:46:25.634Z,37.38
2023-05-24T03:47:24.594Z,37.41
2023-05-24T03:48:24.584Z,37.40
2023-05-24T03:49:24.550Z,37.41
2023-05-24T03:50:24.543Z,37.38
2023-05-24T03:51:24.537Z,37.38
2023-05-24T03:52:24.548Z,37.38
2023-05-24T03:53:24.544Z,37.37
2023-05-24T03:54:24.510Z,37.34
2023-05-24T03:55:24.503Z,37.36
2023-05-24T03:56:24.509Z,37.34
2023-05-24T03:57:24.536Z,37.36
2023-05-24T03:58:24.588Z,37.41
2023-05-24T03:59:24.625Z,37.36
2023-05-24T04:00:24.649Z,37.35
2023-05-24T04:01:33.352Z,37.39
2023-05-24T04:02:25.805Z,37.38
2023-05-24T04:03:24.734Z,37.35
2023-05-24T04:04:24.728Z,37.43
2023-05-24T04:05:24.655Z,37.39
2023-05-24T04:06:24.680Z,37.36
2023-05-24T04:07:24.644Z,37.38
2023-05-24T04:08:24.652Z,37.38
2023-05-24T04:09:24.647Z,37.37
2023-05-24T04:10:24.645Z,37.45
2023-05-24T04:11:24.620Z,37.38
2023-05-24T04:12:24.664Z,37.39
2023-05-24T04:13:24.686Z,37.39
2023-05-24T04:14:24.738Z,37.47
2023-05-24T04:15:24.797Z,37.41
2023-05-24T04:16:24.854Z,37.43
2023-05-24T04:17:25.076Z,37.41
2023-05-24T04:18:24.967Z,37.42
2023-05-24T04:19:24.959Z,37.42
2023-05-24T04:20:25.085Z,37.40
2023-05-24T04:21:25.050Z,37.37
2023-05-24T04:22:25.904Z,37.39
2023-05-24T04:23:25.139Z,37.37
2023-05-24T04:24:25.194Z,37.39
2023-05-24T04:25:25.252Z,37.34
2023-05-24T04:26:25.298Z,37.38
2023-05-24T04:27:25.338Z,37.43
2023-05-24T04:28:25.387Z,37.39
2023-05-24T04:29:25.443Z,37.40
2023-05-24T04:30:25.473Z,37.39
2023-05-24T04:31:25.561Z,37.40
2023-05-24T04:32:25.605Z,37.41
2023-05-24T04:33:25.635Z,37.43
2023-05-24T04:34:25.698Z,37.43
2023-05-24T04:35:25.710Z,37.44
2023-05-24T04:36:25.750Z,37.44
2023-05-24T04:37:25.814Z,37.43
2023-05-24T04:38:25.854Z,37.44
2023-05-24T04:39:25.892Z,37.44
2023-05-24T04:40:25.983Z,37.40
2023-05-24T04:41:25.986Z,37.39
2023-05-24T04:42:26.035Z,37.39
2023-05-24T04:43:26.071Z,37.38
2023-05-24T04:44:26.118Z,37.40
2023-05-24T04:45:26.164Z,37.40
2023-05-24T04:46:26.231Z,37.35
2023-05-24T04:47:26.314Z,37.37
2023-05-24T04:48:26.303Z,37.31
2023-05-24T04:49:26.342Z,37.30
2023-05-24T04:50:26.396Z,37.34
2023-05-24T04:51:26.457Z,37.27
2023-05-24T04:52:26.498Z,37.29
2023-05-24T04:53:26.555Z,37.27
2023-05-24T04:54:26.620Z,37.25
2023-05-24T04:55:26.647Z,37.25
2023-05-24T04:56:26.696Z,37.22
2023-05-24T04:57:26.756Z,37.23
2023-05-24T04:58:26.787Z,37.18
2023-05-24T04:59:26.834Z,37.19
2023-05-24T05:00:26.875Z,37.17
2023-05-24T05:01:26.961Z,37.16
2023-05-24T05:02:26.985Z,37.18
2023-05-24T05:03:27.047Z,37.18
2023-05-24T05:04:27.003Z,37.15
2023-05-24T05:05:27.047Z,37.14
2023-05-24T05:06:27.090Z,37.18
2023-05-24T05:07:27.090Z,37.14
2023-05-24T05:08:27.095Z,37.17
2023-05-24T05:09:27.124Z,37.14
2023-05-24T05:10:27.159Z,37.13
2023-05-24T05:11:27.182Z,37.13
2023-05-24T05:12:27.221Z,37.14
2023-05-24T05:13:27.244Z,37.12
2023-05-24T05:14:27.243Z,37.13
2023-05-24T05:15:27.276Z,37.14
2023-05-24T05:16:27.303Z,37.14
2023-05-24T05:17:27.317Z,37.13
2023-05-24T05:18:27.326Z,37.10
2023-05-24T05:19:27.364Z,37.15
2023-05-24T05:20:27.436Z,37.12
2023-05-24T05:21:27.870Z,37.07
2023-05-24T05:22:28.517Z,37.14
2023-05-24T05:23:27.390Z,37.11
2023-05-24T05:24:27.376Z,37.12
2023-05-24T05:25:27.373Z,37.12
2023-05-24T05:26:27.879Z,37.07
2023-05-24T05:27:27.347Z,37.19
2023-05-24T05:28:27.359Z,37.13
2023-05-24T05:29:27.340Z,37.23
2023-05-24T05:30:27.347Z,37.37
2023-05-24T05:31:27.363Z,37.46
2023-05-24T05:32:27.393Z,37.57
2023-05-24T05:33:27.340Z,37.45
2023-05-24T05:34:27.340Z,37.68
2023-05-24T05:35:27.347Z,37.64
2023-05-24T05:36:27.318Z,37.73
2023-05-24T05:37:27.292Z,37.84
2023-05-24T05:38:27.282Z,37.92
2023-05-24T05:39:27.266Z,38.09
2023-05-24T05:40:27.273Z,38.15
2023-05-24T05:41:27.274Z,38.35
2023-05-24T05:42:27.267Z,38.26
2023-05-24T05:43:27.241Z,38.28
2023-05-24T05:44:27.252Z,38.33
2023-05-24T05:45:27.228Z,38.44
2023-05-24T05:46:27.237Z,38.42
2023-05-24T05:47:27.293Z,38.44
2023-05-24T05:48:27.208Z,38.41
2023-05-24T05:49:27.203Z,38.43
2023-05-24T05:50:27.187Z,38.46
2023-05-24T05:51:27.200Z,38.44
2023-05-24T05:52:27.190Z,38.61
2023-05-24T05:53:27.173Z,38.64
2023-05-24T05:54:27.178Z,38.61
2023-05-24T05:55:27.187Z,38.66
2023-05-24T05:56:27.172Z,38.71
2023-05-24T05:57:27.160Z,38.76
2023-05-24T05:58:27.140Z,38.76
2023-05-24T05:59:27.142Z,38.83
2023-05-24T06:00:27.137Z,38.83
2023-05-24T06:01:27.136Z,38.83
2023-05-24T06:02:27.192Z,38.93
2023-05-24T06:03:27.208Z,38.89
2023-05-24T06:04:27.251Z,38.98
2023-05-24T06:05:27.133Z,38.87
2023-05-24T06:06:27.103Z,39.02
2023-05-24T06:07:27.096Z,38.94
2023-05-24T06:08:27.105Z,38.90
2023-05-24T06:09:27.069Z,38.93
2023-05-24T06:10:27.076Z,38.88
2023-05-24T06:11:27.402Z,39.00
2023-05-24T06:12:27.100Z,38.94
2023-05-24T06:13:27.122Z,38.96
2023-05-24T06:14:27.160Z,38.95
2023-05-24T06:15:27.194Z,38.89
2023-05-24T06:16:27.244Z,38.90
2023-05-24T06:17:27.272Z,38.94
2023-05-24T06:18:27.277Z,38.95
2023-05-24T06:19:27.300Z,38.95
2023-05-24T06:20:27.357Z,39.00
2023-05-24T06:21:27.335Z,38.93
2023-05-24T06:22:27.354Z,38.75
2023-05-24T06:23:27.377Z,38.88
2023-05-24T06:24:27.411Z,38.62
2023-05-24T06:25:27.449Z,38.88
2023-05-24T06:26:27.484Z,38.63
2023-05-24T06:27:27.483Z,38.77
2023-05-24T06:28:27.536Z,38.61
2023-05-24T06:29:27.552Z,38.72
2023-05-24T06:30:27.681Z,38.50
2023-05-24T06:31:27.683Z,38.48
2023-05-24T06:32:27.693Z,38.33
2023-05-24T06:33:27.730Z,38.39
2023-05-24T06:34:27.795Z,38.59
2023-05-24T06:35:27.875Z,38.32
2023-05-24T06:36:27.895Z,38.49
2023-05-24T06:37:27.907Z,38.45
2023-05-24T06:38:27.948Z,38.72
2023-05-24T06:39:27.975Z,38.92
2023-05-24T06:40:28.045Z,38.75
2023-05-24T06:41:28.050Z,38.73
2023-05-24T06:42:28.098Z,38.80
2023-05-24T06:43:28.186Z,38.76
2023-05-24T06:44:28.233Z,38.89
2023-05-24T06:45:28.280Z,38.88
2023-05-24T06:46:28.459Z,38.87
2023-05-24T06:47:28.574Z,38.75
2023-05-24T06:48:28.571Z,38.93
2023-05-24T06:49:28.533Z,38.81
2023-05-24T06:50:28.596Z,38.93
2023-05-24T06:51:28.925Z,38.88
2023-05-24T06:52:28.707Z,38.92
2023-05-24T06:53:28.768Z,38.82
2023-05-24T06:54:28.835Z,38.96
2023-05-24T06:55:28.887Z,39.26
2023-05-24T06:56:29.418Z,39.09
2023-05-24T06:57:28.980Z,39.09
2023-05-24T06:58:29.045Z,38.97
2023-05-24T06:59:29.089Z,39.29
2023-05-24T07:00:29.131Z,39.03
2023-05-24T07:01:29.523Z,39.11
2023-05-24T07:02:29.252Z,38.99
2023-05-24T07:03:29.289Z,38.99
2023-05-24T07:04:29.532Z,38.91
2023-05-24T07:05:29.375Z,38.89
2023-05-24T07:06:29.442Z,38.81
2023-05-24T07:07:29.924Z,38.93
2023-05-24T07:08:29.557Z,38.65
2023-05-24T07:09:29.592Z,38.70
2023-05-24T07:10:29.650Z,38.81
2023-05-24T07:11:29.718Z,39.08
2023-05-24T07:12:29.756Z,39.04
2023-05-24T07:13:29.789Z,39.23
2023-05-24T07:14:29.836Z,39.23
2023-05-24T07:15:29.898Z,39.35
2023-05-24T07:16:30.472Z,39.39
2023-05-24T07:17:29.976Z,39.45
2023-05-24T07:18:30.017Z,39.41
2023-05-24T07:19:30.183Z,39.54
2023-05-24T07:20:30.152Z,39.61
2023-05-24T07:21:30.088Z,39.57
2023-05-24T07:22:30.440Z,39.60
2023-05-24T07:23:30.129Z,39.52
2023-05-24T07:24:30.160Z,39.49
2023-05-24T07:25:30.178Z,39.49
2023-05-24T07:26:30.420Z,39.50
2023-05-24T07:27:30.196Z,39.61
2023-05-24T07:28:30.225Z,39.45
2023-05-24T07:29:30.250Z,39.34
2023-05-24T07:30:46.501Z,39.56
2023-05-24T07:31:31.462Z,39.40
2023-05-24T07:32:30.551Z,39.44
2023-05-24T07:33:30.304Z,39.40
2023-05-24T07:34:30.306Z,39.41
2023-05-24T07:35:30.567Z,39.37
2023-05-24T07:36:31.616Z,39.41
2023-05-24T07:37:30.437Z,39.38
2023-05-24T07:38:30.204Z,39.36
2023-05-24T07:39:30.198Z,39.40
2023-05-24T07:40:30.191Z,39.28
2023-05-24T07:41:30.440Z,39.18
2023-05-24T07:42:30.167Z,39.16
2023-05-24T07:43:30.160Z,39.15
2023-05-24T07:44:30.166Z,39.14
2023-05-24T07:45:30.145Z,39.24
2023-05-24T07:46:30.249Z,39.20
2023-05-24T07:47:30.172Z,39.18
2023-05-24T07:48:30.139Z,39.21
2023-05-24T07:49:30.138Z,39.19
2023-05-24T07:50:30.139Z,39.19
2023-05-24T07:51:30.127Z,39.23
2023-05-24T07:52:30.101Z,39.22
2023-05-24T07:53:30.109Z,39.19
2023-05-24T07:54:30.107Z,39.14
2023-05-24T07:55:30.082Z,39.09
2023-05-24T07:56:30.092Z,39.11
2023-05-24T07:57:30.088Z,39.04
2023-05-24T07:58:30.088Z,39.11
2023-05-24T07:59:30.062Z,39.18
2023-05-24T08:00:30.094Z,39.13
2023-05-24T08:01:30.060Z,39.32
2023-05-24T08:02:30.099Z,39.24
2023-05-24T08:03:30.126Z,39.29
2023-05-24T08:04:30.038Z,39.26
2023-05-24T08:05:30.020Z,39.20
2023-05-24T08:06:30.046Z,39.23
2023-05-24T08:07:30.186Z,39.23
2023-05-24T08:08:30.024Z,39.22
2023-05-24T08:09:30.016Z,39.01
2023-05-24T08:10:30.019Z,38.72
2023-05-24T08:11:30.457Z,38.88
2023-05-24T08:12:29.988Z,38.72
2023-05-24T08:13:29.972Z,38.96
2023-05-24T08:14:29.955Z,38.95
2023-05-24T08:15:29.985Z,38.93
2023-05-24T08:16:30.100Z,38.98
2023-05-24T08:17:30.005Z,38.96
2023-05-24T08:18:29.945Z,39.02
2023-05-24T08:19:29.921Z,39.00
2023-05-24T08:20:29.973Z,39.04
2023-05-24T08:21:29.962Z,39.03
2023-05-24T08:22:29.917Z,38.85
2023-05-24T08:23:29.954Z,39.70
2023-05-24T08:24:29.887Z,39.74
2023-05-24T08:25:29.886Z,39.55
2023-05-24T08:26:29.885Z,39.58
2023-05-24T08:27:29.873Z,39.68
2023-05-24T08:28:29.986Z,39.66
2023-05-24T08:29:29.868Z,39.55
2023-05-24T08:30:29.844Z,39.38
2023-05-24T08:31:29.904Z,39.04
2023-05-24T08:32:29.851Z,39.31
2023-05-24T08:33:29.840Z,39.25
2023-05-24T08:34:29.836Z,39.25
2023-05-24T08:35:29.826Z,39.07
2023-05-24T08:36:29.972Z,39.13
2023-05-24T08:37:29.824Z,39.18
2023-05-24T08:38:29.829Z,39.17
2023-05-24T08:39:29.811Z,39.14
2023-05-24T08:40:29.824Z,39.03
2023-05-24T08:41:29.959Z,39.06
2023-05-24T08:42:29.879Z,39.04
2023-05-24T08:43:32.618Z,38.99
2023-05-24T08:44:29.894Z,38.98
2023-05-24T08:45:29.971Z,38.98
2023-05-24T08:46:29.926Z,38.93
2023-05-24T08:47:29.888Z,38.92
2023-05-24T08:48:30.028Z,38.86
2023-05-24T08:49:32.856Z,38.88
2023-05-24T08:50:29.832Z,38.85
2023-05-24T08:51:29.823Z,38.76
2023-05-24T08:52:29.831Z,38.45
2023-05-24T08:53:29.830Z,38.54
2023-05-24T08:54:29.824Z,38.61
2023-05-24T08:55:32.346Z,38.71
2023-05-24T08:56:29.804Z,38.78
2023-05-24T08:57:29.816Z,38.78
2023-05-24T08:58:29.788Z,38.74
2023-05-24T08:59:29.780Z,38.72
2023-05-24T09:00:29.798Z,38.72
2023-05-24T09:01:31.414Z,38.72
2023-05-24T09:02:29.852Z,38.72
2023-05-24T09:03:30.021Z,38.79
2023-05-24T09:04:29.945Z,38.76
2023-05-24T09:05:29.950Z,38.89
2023-05-24T09:06:30.013Z,38.85
2023-05-24T09:07:32.478Z,38.89
2023-05-24T09:08:30.040Z,38.87
2023-05-24T09:09:30.053Z,38.79
2023-05-24T09:10:41.289Z,38.75
2023-05-24T09:11:31.049Z,38.72
2023-05-24T09:12:37.256Z,38.75
2023-05-24T09:13:31.014Z,38.73
2023-05-24T09:14:30.020Z,38.79
2023-05-24T09:15:30.012Z,38.75
2023-05-24T09:16:30.037Z,38.76
2023-05-24T09:17:31.343Z,38.73
2023-05-24T09:18:30.008Z,38.64
2023-05-24T09:19:29.974Z,38.67
2023-05-24T09:20:30.053Z,38.60
2023-05-24T09:21:29.992Z,38.62
2023-05-24T09:22:29.958Z,38.63
2023-05-24T09:23:29.969Z,38.64
2023-05-24T09:24:29.934Z,38.64
2023-05-24T09:25:29.952Z,38.73
2023-05-24T09:26:29.979Z,38.42
2023-05-24T09:27:29.943Z,38.88
2023-05-24T09:28:29.936Z,38.75
2023-05-24T09:29:29.928Z,38.80
2023-05-24T09:30:29.909Z,38.55
2023-05-24T09:31:30.004Z,38.70
2023-05-24T09:32:29.924Z,38.70
2023-05-24T09:33:29.889Z,38.16
2023-05-24T09:34:29.885Z,38.28
2023-05-24T09:35:29.887Z,38.30
2023-05-24T09:36:29.874Z,38.35
2023-05-24T09:37:32.820Z,38.23
2023-05-24T09:38:29.874Z,38.27
2023-05-24T09:39:29.850Z,38.31
2023-05-24T09:40:29.904Z,38.26
2023-05-24T09:41:29.849Z,38.17
2023-05-24T09:42:29.981Z,38.16
2023-05-24T09:43:29.837Z,38.13
2023-05-24T09:44:29.824Z,38.02
2023-05-24T09:45:29.814Z,37.96
2023-05-24T09:46:29.847Z,38.02
2023-05-24T09:47:30.035Z,38.02
2023-05-24T09:48:29.778Z,37.95
2023-05-24T09:49:29.787Z,37.93
2023-05-24T09:50:29.765Z,37.92
2023-05-24T09:51:29.820Z,37.89
2023-05-24T09:52:29.979Z,37.90
2023-05-24T09:53:29.764Z,37.73
2023-05-24T09:54:29.741Z,37.71
2023-05-24T09:55:29.745Z,37.65
2023-05-24T09:56:29.758Z,37.63
2023-05-24T09:57:29.737Z,37.49
2023-05-24T09:58:29.724Z,37.54
2023-05-24T09:59:29.740Z,37.40
2023-05-24T10:00:29.707Z,37.39
2023-05-24T10:01:29.710Z,37.30
2023-05-24T10:02:35.588Z,37.25
2023-05-24T10:03:30.729Z,37.23
2023-05-24T10:04:29.713Z,37.21
2023-05-24T10:05:29.660Z,37.13
2023-05-24T10:06:29.670Z,37.08
2023-05-24T10:07:29.649Z,37.04
2023-05-24T10:08:29.655Z,37.05
2023-05-24T10:09:29.655Z,37.01
2023-05-24T10:10:29.666Z,36.88
2023-05-24T10:11:29.638Z,36.89
2023-05-24T10:12:29.668Z,36.87
2023-05-24T10:13:29.748Z,36.80
2023-05-24T10:14:29.779Z,36.77
2023-05-24T10:15:30.011Z,36.76
2023-05-24T10:16:29.926Z,36.68
2023-05-24T10:17:29.954Z,36.71
2023-05-24T10:18:29.973Z,36.71
2023-05-24T10:19:30.027Z,36.60
2023-05-24T10:20:30.316Z,36.61
2023-05-24T10:21:30.519Z,36.58
2023-05-24T10:22:30.213Z,36.34
2023-05-24T10:23:30.215Z,36.51
2023-05-24T10:24:30.269Z,36.69
2023-05-24T10:25:30.263Z,37.62
2023-05-24T10:26:30.275Z,37.42
2023-05-24T10:27:30.518Z,37.62
2023-05-24T10:28:30.347Z,37.77
2023-05-24T10:29:30.393Z,37.83
2023-05-24T10:30:30.457Z,37.97
2023-05-24T10:31:30.551Z,38.07
2023-05-24T10:32:30.593Z,38.12
2023-05-24T10:33:30.651Z,38.24
2023-05-24T10:34:30.726Z,38.34
2023-05-24T10:35:30.764Z,38.38
2023-05-24T10:36:30.815Z,38.53
2023-05-24T10:37:30.873Z,38.58
2023-05-24T10:38:30.931Z,38.65
2023-05-24T10:39:30.985Z,38.64
2023-05-24T10:40:31.042Z,38.81
2023-05-24T10:41:31.080Z,38.80
2023-05-24T10:42:31.115Z,38.83
2023-05-24T10:43:31.187Z,38.83
2023-05-24T10:44:31.220Z,38.91
2023-05-24T10:45:31.278Z,38.90
2023-05-24T10:46:31.408Z,38.98
2023-05-24T10:47:31.371Z,38.92
2023-05-24T10:48:31.410Z,38.95
2023-05-24T10:49:31.449Z,38.93
2023-05-24T10:50:31.505Z,38.97
2023-05-24T10:51:31.529Z,38.73
2023-05-24T10:52:31.589Z,38.73
2023-05-24T10:53:31.632Z,38.71
2023-05-24T10:54:31.731Z,38.36
2023-05-24T10:55:31.714Z,38.52
2023-05-24T10:56:31.779Z,38.39
2023-05-24T10:57:31.823Z,38.41
2023-05-24T10:58:31.887Z,38.32
2023-05-24T10:59:31.946Z,38.27
2023-05-24T11:00:35.367Z,38.21
2023-05-24T11:01:32.285Z,38.17
2023-05-24T11:02:32.000Z,38.15
2023-05-24T11:03:31.961Z,38.12
2023-05-24T11:04:31.985Z,38.10
2023-05-24T11:05:31.983Z,38.05
2023-05-24T11:06:31.942Z,38.01
2023-05-24T11:07:32.030Z,37.85
2023-05-24T11:08:31.947Z,37.77
2023-05-24T11:09:31.952Z,37.74
2023-05-24T11:10:31.924Z,37.70
2023-05-24T11:11:32.445Z,37.70
2023-05-24T11:12:31.915Z,37.27
2023-05-24T11:13:31.912Z,36.57
2023-05-24T11:14:31.906Z,36.41
2023-05-24T11:15:31.892Z,36.36
2023-05-24T11:16:32.060Z,36.53
2023-05-24T11:17:32.033Z,36.54
2023-05-24T11:18:31.864Z,36.75
2023-05-24T11:19:31.867Z,36.89
2023-05-24T11:20:31.912Z,36.90
2023-05-24T11:21:31.964Z,36.85
2023-05-24T11:22:32.025Z,36.87
2023-05-24T11:23:31.842Z,36.84
2023-05-24T11:24:31.816Z,36.75
2023-05-24T11:25:31.807Z,36.70
2023-05-24T11:26:31.815Z,36.68
2023-05-24T11:27:31.803Z,36.63
2023-05-24T11:28:31.814Z,36.60
2023-05-24T11:29:31.805Z,36.57
2023-05-24T11:30:31.781Z,36.58
2023-05-24T11:31:31.810Z,36.60
2023-05-24T11:32:31.811Z,36.61
2023-05-24T11:33:31.760Z,36.62
2023-05-24T11:34:31.770Z,36.58
2023-05-24T11:35:31.754Z,36.60
2023-05-24T11:36:31.740Z,36.60
2023-05-24T11:37:45.540Z,36.48
2023-05-24T11:38:32.726Z,36.48
2023-05-24T11:39:31.707Z,36.45
2023-05-24T11:40:31.703Z,36.41
2023-05-24T11:41:31.710Z,36.35
2023-05-24T11:42:31.709Z,36.21
2023-05-24T11:43:31.681Z,36.16
2023-05-24T11:44:31.686Z,36.16
2023-05-24T11:45:31.717Z,36.21
2023-05-24T11:46:31.713Z,36.22
2023-05-24T11:47:31.684Z,36.28
2023-05-24T11:48:32.230Z,36.23
2023-05-24T11:49:31.645Z,36.25
2023-05-24T11:50:39.048Z,36.32
2023-05-24T11:51:32.649Z,36.29
2023-05-24T11:52:31.632Z,36.29
2023-05-24T11:53:31.606Z,36.29
2023-05-24T11:54:31.608Z,36.25
2023-05-24T11:55:31.604Z,36.22
2023-05-24T11:56:33.188Z,36.20
2023-05-24T11:57:31.613Z,36.20
2023-05-24T11:58:31.609Z,36.15
2023-05-24T11:59:31.581Z,36.15
2023-05-24T12:00:31.574Z,36.12
2023-05-24T12:01:31.580Z,36.15
2023-05-24T12:02:31.678Z,35.80
2023-05-24T12:03:31.714Z,35.89
2023-05-24T12:04:31.625Z,36.01
2023-05-24T12:05:31.592Z,36.03
2023-05-24T12:06:31.590Z,35.97
2023-05-24T12:07:32.048Z,35.95
2023-05-24T12:08:31.686Z,35.93
2023-05-24T12:09:31.704Z,35.98
2023-05-24T12:10:31.758Z,35.90
2023-05-24T12:11:31.776Z,35.99
2023-05-24T12:12:42.503Z,35.99
2023-05-24T12:13:32.837Z,36.03
2023-05-24T12:14:31.803Z,36.00
2023-05-24T12:15:31.800Z,35.96
2023-05-24T12:16:31.865Z,35.83
2023-05-24T12:17:32.101Z,35.84
2023-05-24T12:18:31.786Z,36.06
2023-05-24T12:19:33.566Z,37.08
2023-05-24T12:20:31.819Z,36.74
2023-05-24T12:21:31.802Z,37.38
2023-05-24T12:22:31.874Z,37.29
2023-05-24T12:23:31.911Z,37.20
2023-05-24T12:24:31.944Z,37.35
2023-05-24T12:25:31.987Z,37.10
2023-05-24T12:26:32.048Z,36.97
2023-05-24T12:27:32.059Z,36.87
2023-05-24T12:28:32.125Z,36.96
2023-05-24T12:29:32.140Z,36.98
2023-05-24T12:30:32.205Z,37.12
2023-05-24T12:31:32.279Z,37.31
2023-05-24T12:32:32.305Z,37.30
2023-05-24T12:33:32.300Z,36.97
2023-05-24T12:34:32.324Z,36.92
2023-05-24T12:35:32.353Z,36.84
2023-05-24T12:36:32.406Z,36.84
2023-05-24T12:37:32.416Z,36.98
2023-05-24T12:38:32.464Z,36.96
2023-05-24T12:39:32.475Z,36.94
2023-05-24T12:40:32.522Z,36.94
2023-05-24T12:41:32.570Z,36.92
2023-05-24T12:42:33.061Z,36.93
2023-05-24T12:43:32.604Z,36.90
2023-05-24T12:44:32.607Z,36.88
2023-05-24T12:45:32.642Z,36.84
2023-05-24T12:46:32.666Z,36.81
2023-05-24T12:47:32.746Z,36.78
2023-05-24T12:48:32.712Z,36.75
2023-05-24T12:49:32.794Z,36.79
2023-05-24T12:50:32.783Z,36.79
2023-05-24T12:51:32.806Z,36.79
2023-05-24T12:52:33.070Z,36.80
2023-05-24T12:53:32.842Z,36.76
2023-05-24T12:54:32.874Z,36.72